Time;durP1;ratioP1;P1;durP2;ratioP2;P2;SDS_P1;SDS_P2;PMS_P1;PMS_P2;Temp;Humidity;BMP_temperature;BMP_pressure;BME280_temperature;BME280_humidity;BME280_pressure;Samples;Min_cycle;Max_cycle;Signal;HPM_P1;HPM_P2
2022/11/13 00:00:09;;;;;;;24.00;20.00;;;8.70;99.90;;;;;;5025389;28;20199;-64
2022/11/13 00:02:34;;;;;;;25.17;20.13;;;8.70;99.90;;;;;;5027227;28;20195;-65
2022/11/13 00:05:00;;;;;;;28.40;20.80;;;8.80;99.90;;;;;;5026754;28;20209;-65
2022/11/13 00:07:26;;;;;;;20.73;17.63;;;8.80;99.90;;;;;;5027162;28;20195;-64
2022/11/13 00:09:53;;;;;;;25.93;20.93;;;8.90;99.90;;;;;;5029391;28;20199;-65
2022/11/13 00:12:18;;;;;;;23.77;18.90;;;8.90;99.90;;;;;;5026707;28;20196;-65
2022/11/13 00:14:44;;;;;;;26.83;19.03;;;9.00;99.90;;;;;;5024202;28;20866;-65
2022/11/13 00:17:09;;;;;;;23.00;19.13;;;9.00;99.90;;;;;;5032672;28;20203;-65
2022/11/13 00:19:35;;;;;;;21.90;17.90;;;9.00;99.90;;;;;;5037860;28;20291;-65
2022/11/13 00:22:00;;;;;;;22.87;19.10;;;9.10;99.90;;;;;;5037079;28;20209;-64
2022/11/13 00:24:26;;;;;;;20.23;16.73;;;9.10;99.90;;;;;;5035039;28;20235;-64
2022/11/13 00:26:52;;;;;;;22.83;17.07;;;9.10;99.90;;;;;;5037415;28;20671;-64
2022/11/13 00:29:17;;;;;;;19.93;17.70;;;9.20;99.90;;;;;;5037153;28;20675;-64
2022/11/13 00:31:42;;;;;;;20.77;17.57;;;9.20;99.90;;;;;;5036131;28;20196;-64
2022/11/13 00:34:09;;;;;;;19.90;16.67;;;9.30;99.90;;;;;;5036472;28;20307;-64
2022/11/13 00:36:35;;;;;;;26.27;19.03;;;9.30;99.90;;;;;;5036867;28;20685;-62
2022/11/13 00:39:01;;;;;;;22.43;18.17;;;9.30;99.90;;;;;;5035648;28;20239;-62
2022/11/13 00:41:26;;;;;;;22.67;17.17;;;9.40;99.90;;;;;;5037051;28;20216;-62
2022/11/13 00:43:52;;;;;;;16.87;15.07;;;9.40;99.90;;;;;;5036831;28;20686;-62
2022/11/13 00:46:17;;;;;;;19.00;16.40;;;9.40;99.90;;;;;;5036932;28;20235;-62
2022/11/13 00:48:43;;;;;;;21.90;17.63;;;9.40;99.90;;;;;;5036877;28;20199;-62
2022/11/13 00:51:08;;;;;;;21.00;17.70;;;9.50;99.90;;;;;;5034615;28;20195;-64
2022/11/13 00:53:34;;;;;;;21.37;16.37;;;9.50;99.90;;;;;;5036704;28;20760;-64
2022/11/13 00:56:00;;;;;;;20.87;15.50;;;9.50;99.90;;;;;;5036468;28;20719;-66
2022/11/13 00:58:25;;;;;;;19.50;16.73;;;9.60;99.90;;;;;;5036604;28;20492;-68
2022/11/13 01:00:51;;;;;;;21.70;17.43;;;9.60;99.90;;;;;;5035137;28;20211;-65
2022/11/13 01:03:17;;;;;;;19.17;16.20;;;9.60;99.90;;;;;;5036895;28;20204;-68
2022/11/13 01:05:44;;;;;;;21.20;16.77;;;9.60;99.90;;;;;;5034506;28;20538;-66
2022/11/13 01:08:11;;;;;;;19.23;15.50;;;9.70;99.90;;;;;;5036526;28;20602;-66
2022/11/13 01:10:43;;;;;;;20.97;16.83;;;9.70;99.90;;;;;;5036794;28;20749;-66
2022/11/13 01:13:08;;;;;;;17.77;14.87;;;9.70;99.90;;;;;;5036356;28;20204;-67
2022/11/13 01:15:34;;;;;;;20.70;15.53;;;9.80;99.90;;;;;;5036628;28;20203;-67
2022/11/13 01:17:59;;;;;;;22.60;16.17;;;9.80;99.90;;;;;;5034404;28;20727;-66
2022/11/13 01:20:25;;;;;;;18.57;15.30;;;9.80;99.90;;;;;;5036238;28;20279;-67
2022/11/13 01:22:50;;;;;;;16.13;13.93;;;9.80;99.90;;;;;;5036413;28;20577;-67
2022/11/13 01:25:17;;;;;;;17.80;15.87;;;9.80;99.90;;;;;;5036072;28;20860;-67
2022/11/13 01:27:43;;;;;;;18.13;15.23;;;9.90;99.90;;;;;;5035259;28;20206;-68
2022/11/13 01:30:09;;;;;;;17.47;15.13;;;9.90;99.90;;;;;;5036259;28;20318;-67
2022/11/13 01:32:34;;;;;;;21.23;15.03;;;9.90;99.90;;;;;;5034980;28;20206;-67
2022/11/13 01:35:00;;;;;;;18.13;16.13;;;9.90;99.90;;;;;;5036173;28;20995;-68
2022/11/13 01:37:26;;;;;;;17.43;14.63;;;9.90;99.90;;;;;;5036026;28;20673;-66
2022/11/13 01:39:51;;;;;;;17.27;15.13;;;9.90;99.90;;;;;;5036061;28;20199;-66
2022/11/13 01:42:17;;;;;;;17.40;15.47;;;10.00;99.90;;;;;;5036817;28;20686;-65
2022/11/13 01:44:53;;;;;;;18.33;15.57;;;10.00;99.90;;;;;;5034137;28;20756;-66
2022/11/13 01:47:20;;;;;;;21.37;16.93;;;10.00;99.90;;;;;;5040105;28;20214;-67
2022/11/13 01:49:47;;;;;;;17.00;15.23;;;10.00;99.90;;;;;;5040143;28;20230;-66
2022/11/13 01:52:32;;;;;;;16.20;14.30;;;10.10;99.90;;;;;;5040086;28;20212;-66
2022/11/13 01:55:04;;;;;;;18.50;14.73;;;10.10;99.90;;;;;;5039829;28;20312;-65
2022/11/13 01:57:30;;;;;;;20.50;16.13;;;10.10;99.90;;;;;;5037889;28;20215;-67
2022/11/13 02:00:03;;;;;;;18.63;15.17;;;10.10;99.90;;;;;;5040249;28;20295;-67
2022/11/13 02:02:29;;;;;;;22.97;16.43;;;10.10;99.90;;;;;;5040072;28;20288;-67
2022/11/13 02:04:55;;;;;;;19.57;16.13;;;10.10;99.90;;;;;;5039781;28;20307;-67
2022/11/13 02:07:22;;;;;;;17.80;15.37;;;10.10;99.90;;;;;;5040142;28;20231;-66
2022/11/13 02:09:50;;;;;;;18.80;16.87;;;10.20;99.90;;;;;;5040539;28;20214;-66
2022/11/13 02:12:24;;;;;;;18.00;15.43;;;10.20;99.90;;;;;;5039930;28;20204;-66
2022/11/13 02:14:53;;;;;;;18.13;15.33;;;10.20;99.90;;;;;;5039992;28;20709;-66
2022/11/13 02:17:28;;;;;;;16.77;14.97;;;10.20;99.90;;;;;;5037973;28;20197;-66
2022/11/13 02:19:58;;;;;;;16.83;13.57;;;10.20;99.90;;;;;;5039758;28;20195;-66
2022/11/13 02:22:29;;;;;;;16.47;13.80;;;10.20;99.90;;;;;;5038732;28;20207;-66
2022/11/13 02:24:58;;;;;;;15.33;13.73;;;10.20;99.90;;;;;;5039661;28;20331;-68
2022/11/13 02:27:47;;;;;;;17.93;13.27;;;10.20;99.90;;;;;;5039695;28;20210;-69
2022/11/13 02:30:28;;;;;;;19.47;13.67;;;10.30;99.90;;;;;;5039517;28;20695;-69
2022/11/13 02:32:55;;;;;;;16.33;13.10;;;10.30;99.90;;;;;;5039172;28;20192;-70
2022/11/13 02:35:27;;;;;;;14.57;13.00;;;10.40;99.90;;;;;;5038040;28;20252;-68
2022/11/13 02:38:04;;;;;;;15.50;12.17;;;10.40;99.90;;;;;;5038766;28;20230;-69
2022/11/13 02:40:31;;;;;;;18.17;12.47;;;10.40;99.90;;;;;;5037552;28;20600;-69
2022/11/13 02:42:56;;;;;;;16.00;13.10;;;10.30;99.90;;;;;;5039156;28;20217;-68
2022/11/13 02:45:22;;;;;;;14.17;12.67;;;10.30;99.90;;;;;;5039501;28;20304;-68
2022/11/13 02:47:48;;;;;;;17.57;13.50;;;10.30;99.90;;;;;;5039574;28;20192;-68
2022/11/13 02:50:14;;;;;;;13.27;11.97;;;10.30;99.90;;;;;;5039178;28;20189;-69
2022/11/13 02:52:39;;;;;;;14.07;11.90;;;10.30;99.90;;;;;;5039242;28;20205;-69
2022/11/13 02:55:05;;;;;;;15.23;10.80;;;10.30;99.90;;;;;;5037214;28;20280;-66
2022/11/13 02:57:31;;;;;;;14.73;11.23;;;10.40;99.90;;;;;;5038495;28;20696;-66
2022/11/13 02:59:57;;;;;;;12.13;10.97;;;10.40;99.90;;;;;;5037405;28;20240;-66
2022/11/13 03:02:22;;;;;;;12.93;11.40;;;10.40;99.90;;;;;;5038975;28;20206;-67
2022/11/13 03:04:48;;;;;;;15.70;11.70;;;10.40;99.90;;;;;;5039974;28;20247;-66
2022/11/13 03:07:14;;;;;;;15.23;11.43;;;10.40;99.90;;;;;;5036524;28;20201;-66
2022/11/13 03:09:40;;;;;;;12.77;11.43;;;10.40;99.90;;;;;;5039003;28;20201;-68
2022/11/13 03:12:09;;;;;;;16.17;11.90;;;10.40;99.90;;;;;;5038622;28;20206;-68
2022/11/13 03:14:34;;;;;;;13.57;11.13;;;10.40;99.90;;;;;;5038579;28;20205;-65
2022/11/13 03:17:00;;;;;;;12.30;10.60;;;10.40;99.90;;;;;;5033672;28;20204;-67
2022/11/13 03:19:27;;;;;;;14.10;11.83;;;10.50;99.90;;;;;;5037387;28;20214;-64
2022/11/13 03:21:52;;;;;;;14.00;12.33;;;10.40;99.90;;;;;;5037943;28;20212;-65
2022/11/13 03:24:18;;;;;;;16.03;11.30;;;10.40;99.90;;;;;;5038391;28;20223;-66
2022/11/13 03:26:43;;;;;;;14.07;11.73;;;10.40;99.90;;;;;;5038081;28;20199;-66
2022/11/13 03:29:09;;;;;;;12.73;11.53;;;10.40;99.90;;;;;;5037999;28;20206;-67
2022/11/13 03:31:37;;;;;;;13.50;11.10;;;10.50;99.90;;;;;;5035194;28;20201;-67
2022/11/13 03:34:03;;;;;;;13.50;12.17;;;10.50;99.90;;;;;;5033580;28;20201;-67
2022/11/13 03:36:28;;;;;;;13.60;11.73;;;10.50;99.90;;;;;;5038857;28;20205;-67
2022/11/13 03:38:54;;;;;;;12.83;11.53;;;10.50;99.90;;;;;;5037284;28;20202;-67
2022/11/13 03:41:21;;;;;;;14.03;12.17;;;10.60;99.90;;;;;;5038428;28;20622;-67
2022/11/13 03:43:47;;;;;;;11.57;10.37;;;10.60;99.90;;;;;;5036142;28;20565;-66
2022/11/13 03:46:12;;;;;;;12.90;11.57;;;10.60;99.90;;;;;;5037983;28;20205;-67
2022/11/13 03:48:38;;;;;;;13.77;11.53;;;10.60;99.90;;;;;;5038174;28;20200;-66
2022/11/13 03:51:06;;;;;;;11.97;10.77;;;10.60;99.90;;;;;;5037927;28;20258;-66
2022/11/13 03:53:31;;;;;;;12.53;10.47;;;10.50;99.90;;;;;;5037634;28;20258;-65
2022/11/13 03:55:57;;;;;;;11.23;10.07;;;10.50;99.90;;;;;;5036255;28;20691;-66
2022/11/13 03:58:22;;;;;;;12.97;9.70;;;10.50;99.90;;;;;;5028567;28;20272;-65
2022/11/13 04:00:48;;;;;;;13.20;10.00;;;10.50;99.90;;;;;;5037186;28;20734;-65
2022/11/13 04:03:14;;;;;;;11.63;9.70;;;10.60;99.90;;;;;;5037393;28;20715;-66
2022/11/13 04:05:41;;;;;;;10.13;9.10;;;10.60;99.90;;;;;;5031371;28;20884;-67
2022/11/13 04:08:06;;;;;;;11.50;9.53;;;10.60;99.90;;;;;;5037128;28;20315;-67
2022/11/13 04:10:32;;;;;;;9.53;8.63;;;10.60;99.90;;;;;;5036036;28;20274;-67
2022/11/13 04:12:57;;;;;;;9.57;8.63;;;10.50;99.90;;;;;;5036892;28;20195;-68
2022/11/13 04:15:23;;;;;;;13.20;10.13;;;10.50;99.90;;;;;;5037780;28;20204;-68
2022/11/13 04:17:48;;;;;;;10.97;9.20;;;10.50;99.90;;;;;;5037436;28;20209;-67
2022/11/13 04:20:14;;;;;;;11.77;9.23;;;10.50;99.90;;;;;;5037371;28;20200;-67
2022/11/13 04:22:39;;;;;;;10.53;8.93;;;10.50;99.90;;;;;;5037204;28;20291;-67
2022/11/13 04:25:06;;;;;;;13.00;10.13;;;10.50;99.90;;;;;;5035243;28;20813;-67
2022/11/13 04:27:31;;;;;;;11.67;10.40;;;10.40;99.90;;;;;;5036843;28;20192;-65
2022/11/13 04:29:57;;;;;;;10.67;9.73;;;10.50;99.90;;;;;;5037167;28;20213;-68
2022/11/13 04:32:22;;;;;;;11.27;10.23;;;10.50;99.90;;;;;;5037926;28;20216;-69
2022/11/13 04:34:48;;;;;;;11.43;10.33;;;10.50;99.90;;;;;;5037159;28;20202;-68
2022/11/13 04:37:13;;;;;;;11.87;9.97;;;10.50;99.90;;;;;;5036805;28;20208;-61
2022/11/13 04:39:39;;;;;;;13.27;10.40;;;10.50;99.90;;;;;;5035228;28;20288;-69
2022/11/13 04:44:48;;;;;;;11.00;9.90;;;10.40;99.90;;;;;;5034801;28;20713;-67
2022/11/13 04:47:14;;;;;;;10.27;9.03;;;10.50;99.90;;;;;;5036461;28;20196;-67
2022/11/13 04:49:39;;;;;;;15.07;10.27;;;10.50;99.90;;;;;;5035776;28;20205;-69
2022/11/13 04:52:05;;;;;;;11.17;10.07;;;10.50;99.90;;;;;;5036878;28;20729;-67
2022/11/13 04:54:30;;;;;;;12.13;10.03;;;10.50;99.90;;;;;;5034501;28;20208;-66
2022/11/13 04:56:56;;;;;;;11.30;10.10;;;10.40;99.90;;;;;;5036382;28;20236;-67
2022/11/13 04:59:21;;;;;;;10.53;9.57;;;10.40;99.90;;;;;;5035783;28;20746;-67
2022/11/13 05:01:47;;;;;;;11.33;10.13;;;10.40;99.90;;;;;;5031691;28;20200;-71
2022/11/13 05:04:14;;;;;;;12.20;10.00;;;10.40;99.90;;;;;;5036412;28;20583;-70
2022/11/13 05:06:40;;;;;;;12.70;10.20;;;10.40;99.90;;;;;;5036810;28;20204;-71
2022/11/13 05:09:05;;;;;;;11.63;9.80;;;10.40;99.90;;;;;;5036879;28;20193;-68
2022/11/13 05:11:31;;;;;;;11.97;10.47;;;10.40;99.90;;;;;;5036380;28;20196;-70
2022/11/13 05:13:56;;;;;;;12.37;10.73;;;10.40;99.90;;;;;;5035762;28;20212;-70
2022/11/13 05:16:22;;;;;;;12.97;10.83;;;10.30;99.90;;;;;;5036378;28;20251;-70
2022/11/13 05:18:47;;;;;;;11.33;10.23;;;10.40;99.90;;;;;;5036358;28;20239;-69
2022/11/13 05:21:13;;;;;;;11.47;10.30;;;10.40;99.90;;;;;;5036301;28;20655;-69
2022/11/13 05:23:38;;;;;;;11.53;9.90;;;10.40;99.90;;;;;;5036490;28;20238;-69
2022/11/13 05:26:06;;;;;;;11.93;10.73;;;10.40;99.90;;;;;;5032899;28;20233;-68
2022/11/13 05:28:32;;;;;;;12.33;9.47;;;10.40;99.90;;;;;;5036041;28;20632;-68
2022/11/13 05:31:12;;;;;;;12.87;10.47;;;10.40;99.90;;;;;;5036063;28;20303;-68
2022/11/13 05:33:40;;;;;;;11.13;9.63;;;10.40;99.90;;;;;;5034404;28;20200;-68
2022/11/13 05:36:08;;;;;;;12.80;10.87;;;10.40;99.90;;;;;;5036323;28;20205;-69
2022/11/13 05:38:34;;;;;;;11.87;10.57;;;10.40;99.90;;;;;;5036063;28;20206;-70
2022/11/13 05:41:10;;;;;;;12.20;10.13;;;10.40;99.90;;;;;;5036310;28;20196;-69
2022/11/13 05:43:36;;;;;;;11.63;10.10;;;10.40;99.90;;;;;;5034400;28;20226;-67
2022/11/13 05:46:11;;;;;;;10.87;9.77;;;10.40;99.90;;;;;;5036058;28;20217;-68
2022/11/13 05:48:37;;;;;;;11.07;10.07;;;10.40;99.90;;;;;;5035967;28;20200;-68
2022/11/13 05:51:10;;;;;;;11.53;9.37;;;10.40;99.90;;;;;;5035607;28;20299;-68
2022/11/13 05:53:37;;;;;;;11.13;10.03;;;10.40;99.90;;;;;;5027073;28;20220;-67
2022/11/13 05:56:23;;;;;;;13.83;11.83;;;10.30;99.90;;;;;;5026533;28;20292;-67
2022/11/13 05:58:51;;;;;;;10.87;9.27;;;10.30;99.90;;;;;;5024778;28;20285;-67
2022/11/13 06:01:21;;;;;;;11.40;9.63;;;10.30;99.90;;;;;;5026597;28;20557;-68
2022/11/13 06:03:48;;;;;;;10.97;9.63;;;10.30;99.90;;;;;;5025714;28;20207;-66
2022/11/13 06:06:19;;;;;;;10.77;9.87;;;10.30;99.90;;;;;;5024055;28;20347;-66
2022/11/13 06:08:45;;;;;;;10.27;9.27;;;10.30;99.90;;;;;;5025655;28;20244;-65
2022/11/13 06:11:13;;;;;;;12.07;10.77;;;10.30;99.90;;;;;;5023966;28;20225;-66
2022/11/13 06:13:39;;;;;;;10.53;9.47;;;10.40;99.90;;;;;;5025506;28;20202;-66
2022/11/13 06:16:08;;;;;;;12.87;10.73;;;10.30;99.90;;;;;;5024309;28;20267;-66
2022/11/13 06:18:35;;;;;;;12.57;10.40;;;10.30;99.90;;;;;;5026174;28;20196;-66
2022/11/13 06:21:06;;;;;;;12.47;11.20;;;10.30;99.90;;;;;;5026029;28;20245;-66
2022/11/13 06:23:34;;;;;;;16.37;10.90;;;10.40;99.90;;;;;;5025921;28;20219;-67
2022/11/13 06:26:05;;;;;;;12.37;10.53;;;10.30;99.90;;;;;;5023539;28;20223;-67
2022/11/13 06:28:31;;;;;;;14.17;12.67;;;10.30;99.90;;;;;;5025069;28;20232;-66
2022/11/13 06:31:09;;;;;;;15.97;13.27;;;10.30;99.90;;;;;;5025827;28;20216;-66
2022/11/13 06:33:36;;;;;;;16.70;14.27;;;10.30;99.90;;;;;;5027790;28;20194;-67
2022/11/13 06:36:03;;;;;;;17.60;15.80;;;10.30;99.90;;;;;;5029374;28;20217;-66
2022/11/13 06:38:35;;;;;;;18.63;16.70;;;10.30;99.90;;;;;;5029518;28;20240;-67
2022/11/13 06:41:02;;;;;;;17.33;15.57;;;10.40;99.90;;;;;;5029862;28;20240;-66
2022/11/13 06:43:28;;;;;;;20.33;17.50;;;10.40;99.90;;;;;;5022501;28;20689;-66
2022/11/13 06:45:54;;;;;;;23.10;16.33;;;10.40;99.90;;;;;;5028882;28;20215;-66
2022/11/13 06:48:20;;;;;;;22.87;19.43;;;10.40;99.90;;;;;;5028681;28;20219;-65
2022/11/13 06:50:46;;;;;;;20.10;18.07;;;10.40;99.90;;;;;;5028423;28;20227;-68
2022/11/13 06:53:13;;;;;;;22.00;18.93;;;10.40;99.90;;;;;;5032837;28;20235;-67
2022/11/13 06:55:47;;;;;;;21.13;19.03;;;10.40;99.90;;;;;;5022866;28;20307;-67
2022/11/13 06:58:13;;;;;;;21.20;18.93;;;10.40;99.90;;;;;;5029576;28;20719;-67
2022/11/13 07:00:39;;;;;;;22.90;19.23;;;10.40;99.90;;;;;;5029387;28;20737;-66
2022/11/13 07:03:05;;;;;;;24.80;19.30;;;10.40;99.90;;;;;;5029157;28;20207;-68
2022/11/13 07:05:30;;;;;;;20.87;18.40;;;10.40;99.90;;;;;;5026688;28;20212;-66
2022/11/13 07:07:56;;;;;;;21.47;19.30;;;10.40;99.90;;;;;;5029561;28;20210;-68
2022/11/13 07:10:21;;;;;;;21.27;18.77;;;10.50;99.90;;;;;;5027295;28;20212;-67
2022/11/13 07:12:47;;;;;;;21.43;18.53;;;10.50;99.90;;;;;;5028658;28;20206;-68
2022/11/13 07:15:12;;;;;;;19.80;16.87;;;10.50;99.90;;;;;;5027971;28;20479;-68
2022/11/13 07:17:38;;;;;;;20.13;18.13;;;10.50;99.90;;;;;;5028319;28;20239;-69
2022/11/13 07:20:04;;;;;;;16.30;14.67;;;10.50;99.90;;;;;;5026473;28;20206;-67
2022/11/13 07:22:29;;;;;;;17.60;15.33;;;10.50;99.90;;;;;;5033924;28;20212;-67
2022/11/13 07:24:55;;;;;;;15.77;14.10;;;10.50;99.90;;;;;;5038372;28;20223;-67
2022/11/13 07:27:21;;;;;;;14.67;12.37;;;10.50;99.90;;;;;;5038242;28;20225;-68
2022/11/13 07:29:46;;;;;;;13.90;12.47;;;10.50;99.90;;;;;;5038707;28;20669;-69
2022/11/13 07:32:12;;;;;;;15.37;12.17;;;10.50;99.90;;;;;;5036772;28;20205;-69
2022/11/13 07:34:37;;;;;;;15.40;12.73;;;10.50;99.90;;;;;;5028839;28;20214;-69
2022/11/13 07:37:05;;;;;;;13.57;11.23;;;10.50;99.90;;;;;;5037882;28;20307;-68
2022/11/13 07:39:31;;;;;;;13.33;11.93;;;10.50;99.90;;;;;;5037949;28;20518;-66
2022/11/13 07:41:56;;;;;;;18.17;12.63;;;10.50;99.90;;;;;;5038043;28;20217;-68
2022/11/13 07:44:22;;;;;;;13.87;12.37;;;10.50;99.90;;;;;;5036374;28;20217;-68
2022/11/13 07:46:47;;;;;;;16.20;13.50;;;10.50;99.90;;;;;;5036890;28;20197;-67
2022/11/13 07:49:13;;;;;;;14.90;13.00;;;10.50;99.90;;;;;;5025966;28;20654;-66
2022/11/13 07:51:38;;;;;;;15.47;13.67;;;10.50;99.90;;;;;;5028605;28;20191;-68
2022/11/13 07:54:04;;;;;;;16.17;12.93;;;10.50;99.90;;;;;;5028149;28;20212;-68
2022/11/13 07:56:29;;;;;;;14.73;12.83;;;10.50;99.90;;;;;;5027625;28;21119;-68
2022/11/13 07:58:55;;;;;;;15.70;13.20;;;10.60;99.90;;;;;;5028080;28;20278;-67
2022/11/13 08:01:20;;;;;;;13.20;11.83;;;10.60;99.90;;;;;;5025387;28;20203;-66
2022/11/13 08:03:46;;;;;;;19.53;13.37;;;10.60;99.90;;;;;;5027142;28;20229;-68
2022/11/13 08:06:11;;;;;;;17.60;14.20;;;10.60;99.90;;;;;;5026787;28;20719;-69
2022/11/13 08:08:37;;;;;;;17.33;15.30;;;10.60;99.90;;;;;;5026395;28;20221;-64
2022/11/13 08:11:05;;;;;;;17.00;13.80;;;10.60;99.90;;;;;;5026616;28;20205;-66
2022/11/13 08:13:31;;;;;;;19.77;13.83;;;10.60;99.90;;;;;;5031551;28;20299;-65
2022/11/13 08:16:01;;;;;;;23.10;14.33;;;10.60;99.90;;;;;;5039324;28;20582;-67
2022/11/13 08:18:28;;;;;;;17.17;15.23;;;10.60;99.90;;;;;;5034917;28;20212;-67
2022/11/13 08:20:53;;;;;;;15.67;14.07;;;10.70;99.90;;;;;;5036676;28;20261;-66
2022/11/13 08:23:19;;;;;;;15.80;13.43;;;10.70;99.90;;;;;;5027017;28;20210;-66
2022/11/13 08:25:44;;;;;;;16.97;13.83;;;10.80;99.90;;;;;;5037095;28;20214;-69
2022/11/13 08:28:11;;;;;;;16.37;14.23;;;10.80;99.90;;;;;;5031261;28;20776;-59
2022/11/13 08:30:37;;;;;;;18.53;13.93;;;10.70;99.90;;;;;;5025542;28;20329;-58
2022/11/13 08:33:03;;;;;;;20.33;14.93;;;10.80;99.90;;;;;;5026079;28;20634;-57
2022/11/13 08:35:29;;;;;;;19.53;15.03;;;10.90;99.90;;;;;;5023523;28;20345;-57
2022/11/13 08:37:59;;;;;;;21.20;14.97;;;10.90;99.90;;;;;;5025485;28;20289;-58
2022/11/13 08:40:25;;;;;;;17.30;14.17;;;10.90;99.90;;;;;;5028592;28;20617;-57
2022/11/13 08:42:50;;;;;;;18.50;14.83;;;11.00;99.90;;;;;;5035914;28;20200;-65
2022/11/13 08:45:16;;;;;;;18.17;13.77;;;11.00;99.90;;;;;;5036928;28;20215;-71
2022/11/13 08:47:41;;;;;;;18.60;14.67;;;11.00;99.90;;;;;;5027705;28;20196;-68
2022/11/13 08:50:07;;;;;;;18.07;13.90;;;11.00;99.90;;;;;;5033157;28;20205;-70
2022/11/13 08:52:33;;;;;;;17.50;14.13;;;11.00;99.90;;;;;;5031365;28;20554;-74
2022/11/13 08:54:58;;;;;;;15.57;13.20;;;11.00;99.90;;;;;;5024145;28;20211;-66
2022/11/13 08:57:23;;;;;;;18.13;13.43;;;11.00;99.90;;;;;;5035878;28;20382;-68
2022/11/13 08:59:49;;;;;;;16.33;13.80;;;11.10;99.90;;;;;;5036353;28;20212;-70
2022/11/13 09:02:15;;;;;;;19.97;14.30;;;11.10;99.90;;;;;;5033858;28;20224;-68
2022/11/13 09:04:41;;;;;;;16.00;14.13;;;11.10;99.90;;;;;;5035970;28;20256;-68
2022/11/13 09:07:06;;;;;;;22.80;14.83;;;11.00;99.90;;;;;;5038416;28;20235;-68
2022/11/13 09:09:33;;;;;;;18.07;14.60;;;11.00;99.90;;;;;;5033277;28;20208;-68
2022/11/13 09:11:58;;;;;;;17.53;13.47;;;11.00;99.90;;;;;;5035748;28;20580;-68
2022/11/13 09:14:24;;;;;;;20.47;15.50;;;11.00;99.90;;;;;;5036038;28;20201;-68
2022/11/13 09:16:49;;;;;;;16.70;14.17;;;11.00;99.90;;;;;;5034047;28;20740;-68
2022/11/13 09:19:15;;;;;;;18.57;13.70;;;11.00;99.90;;;;;;5035792;28;20217;-67
2022/11/13 09:21:40;;;;;;;17.57;14.67;;;11.10;99.90;;;;;;5035975;28;20679;-67
2022/11/13 09:24:06;;;;;;;16.97;14.10;;;11.10;99.90;;;;;;5035959;28;20215;-68
2022/11/13 09:26:34;;;;;;;19.47;14.07;;;11.10;99.90;;;;;;5036041;28;20196;-68
2022/11/13 09:29:00;;;;;;;18.00;15.13;;;11.20;99.90;;;;;;5033911;28;20453;-68
2022/11/13 09:31:25;;;;;;;18.97;14.73;;;11.20;99.90;;;;;;5035558;28;20190;-68
2022/11/13 09:33:50;;;;;;;18.70;14.77;;;11.10;99.90;;;;;;5036083;28;20971;-68
2022/11/13 09:36:16;;;;;;;18.67;13.53;;;11.10;99.90;;;;;;5035488;28;22994;-68
2022/11/13 09:38:42;;;;;;;19.30;14.67;;;11.10;99.90;;;;;;5035454;28;20596;-69
2022/11/13 09:41:17;;;;;;;17.27;14.57;;;11.20;99.90;;;;;;5034034;28;20198;-70
2022/11/13 09:43:54;;;;;;;17.43;15.40;;;11.10;99.90;;;;;;5031921;28;20201;-69
2022/11/13 09:46:39;;;;;;;18.00;14.57;;;11.10;99.90;;;;;;5025936;28;20201;-69
2022/11/13 09:49:16;;;;;;;16.77;13.87;;;11.10;99.90;;;;;;5024326;28;20651;-65
2022/11/13 09:51:52;;;;;;;15.63;13.10;;;11.20;99.90;;;;;;5024505;28;20726;-69
2022/11/13 09:54:19;;;;;;;17.33;14.00;;;11.20;99.90;;;;;;5028478;28;20221;-73
2022/11/13 09:57:17;;;;;;;16.30;14.17;;;11.30;99.90;;;;;;5027938;28;20573;-72
2022/11/13 09:59:46;;;;;;;15.00;13.23;;;11.30;99.90;;;;;;5026351;28;20207;-67
2022/11/13 10:02:39;;;;;;;14.73;12.97;;;11.30;99.90;;;;;;5024679;28;20208;-70
2022/11/13 10:05:28;;;;;;;17.03;14.13;;;11.30;99.90;;;;;;5024599;28;20714;-71
2022/11/13 10:08:06;;;;;;;14.17;12.70;;;11.30;99.90;;;;;;5032368;28;20293;-69
2022/11/13 10:10:49;;;;;;;16.00;13.10;;;11.40;99.90;;;;;;5038760;28;20703;-72
2022/11/13 10:13:25;;;;;;;16.97;13.13;;;11.50;99.90;;;;;;5038273;28;20210;-76
2022/11/13 10:15:55;;;;;;;15.80;13.07;;;11.50;99.90;;;;;;5039537;28;20200;-72
2022/11/13 10:18:26;;;;;;;14.57;12.87;;;11.60;99.90;;;;;;5037084;28;20196;-67
2022/11/13 10:21:00;;;;;;;15.70;13.93;;;11.60;99.90;;;;;;5039370;28;20205;-67
2022/11/13 10:23:37;;;;;;;14.23;12.73;;;11.70;99.90;;;;;;5039107;28;20347;-70
2022/11/13 10:26:20;;;;;;;14.73;12.60;;;11.70;99.90;;;;;;5033046;28;20241;-69
2022/11/13 10:28:53;;;;;;;15.10;12.10;;;11.70;99.90;;;;;;5029560;28;20198;-68
2022/11/13 10:31:18;;;;;;;13.93;11.03;;;11.80;99.90;;;;;;5030381;28;20539;-70
2022/11/13 10:33:44;;;;;;;18.53;12.13;;;11.80;99.90;;;;;;5027814;28;20198;-70
2022/11/13 10:36:33;;;;;;;12.57;11.17;;;11.80;99.90;;;;;;5031982;28;20298;-67
2022/11/13 10:39:05;;;;;;;17.23;12.33;;;11.80;99.90;;;;;;5026208;28;20353;-73
2022/11/13 10:41:32;;;;;;;14.13;11.63;;;11.90;99.90;;;;;;5030859;28;20203;-68
2022/11/13 10:44:06;;;;;;;13.17;11.20;;;11.90;99.90;;;;;;5038474;28;20426;-69
2022/11/13 10:46:32;;;;;;;14.03;12.30;;;11.80;99.90;;;;;;5037236;28;20214;-69
2022/11/13 10:49:09;;;;;;;13.17;11.23;;;11.80;99.90;;;;;;5038256;28;20198;-70
2022/11/13 10:51:35;;;;;;;14.77;12.53;;;11.80;99.90;;;;;;5038441;28;20250;-68
2022/11/13 10:54:21;;;;;;;12.43;11.13;;;11.90;99.90;;;;;;5038331;28;20270;-67
2022/11/13 10:57:16;;;;;;;14.47;12.50;;;11.80;99.90;;;;;;5037302;28;20251;-69
2022/11/13 10:59:43;;;;;;;13.33;11.80;;;11.90;99.90;;;;;;5036224;28;20292;-69
2022/11/13 11:02:24;;;;;;;13.03;11.60;;;11.80;99.90;;;;;;5038195;28;20217;-69
2022/11/13 11:05:01;;;;;;;15.20;12.37;;;11.90;99.90;;;;;;5038381;28;20635;-69
2022/11/13 11:07:27;;;;;;;12.73;10.63;;;11.90;99.90;;;;;;5032340;28;20280;-68
2022/11/13 11:09:53;;;;;;;12.37;10.80;;;11.90;99.90;;;;;;5038700;28;20625;-66
2022/11/13 11:12:22;;;;;;;12.63;11.27;;;11.90;99.90;;;;;;5038512;28;20776;-70
2022/11/13 11:14:59;;;;;;;12.83;10.53;;;12.00;99.90;;;;;;5036715;28;20328;-69
2022/11/13 11:17:37;;;;;;;12.73;11.47;;;12.00;99.90;;;;;;5035270;28;20202;-68
2022/11/13 11:20:06;;;;;;;12.57;11.33;;;12.00;99.90;;;;;;5037516;28;20207;-73
2022/11/13 11:22:36;;;;;;;13.27;11.27;;;12.10;99.90;;;;;;5034826;28;20226;-72
2022/11/13 11:25:32;;;;;;;11.67;10.57;;;12.10;99.90;;;;;;5035471;28;20222;-67
2022/11/13 11:28:24;;;;;;;10.70;9.60;;;12.10;99.90;;;;;;5026345;28;20607;-67
2022/11/13 11:30:54;;;;;;;12.07;10.63;;;12.20;99.90;;;;;;5026978;28;20212;-68
2022/11/13 11:33:30;;;;;;;13.37;11.37;;;12.30;99.90;;;;;;5027638;28;20293;-69
2022/11/13 11:36:10;;;;;;;12.37;11.03;;;12.30;99.90;;;;;;5025337;28;20987;-68
2022/11/13 11:38:54;;;;;;;11.73;10.50;;;12.30;99.90;;;;;;5025566;28;20198;-70
2022/11/13 11:41:25;;;;;;;12.10;10.07;;;12.40;99.90;;;;;;5027775;28;20272;-70
2022/11/13 11:44:16;;;;;;;11.60;10.13;;;12.40;99.90;;;;;;5023464;28;20210;-68
2022/11/13 11:46:42;;;;;;;11.90;10.67;;;12.40;99.90;;;;;;5026159;28;20199;-65
2022/11/13 11:49:09;;;;;;;10.67;9.60;;;12.50;99.90;;;;;;5037999;28;20256;-67
2022/11/13 11:52:02;;;;;;;10.60;9.50;;;12.50;99.90;;;;;;5035661;28;20205;-67
2022/11/13 11:54:40;;;;;;;10.27;9.23;;;12.60;99.90;;;;;;5023302;28;20298;-68
2022/11/13 11:57:25;;;;;;;12.53;9.63;;;12.80;99.90;;;;;;5027885;28;20230;-69
2022/11/13 12:00:03;;;;;;;9.90;8.90;;;13.10;99.90;;;;;;5027429;28;20349;-68
2022/11/13 12:03:03;;;;;;;11.30;9.63;;;13.40;99.90;;;;;;5022390;28;20203;-69
2022/11/13 12:05:52;;;;;;;10.13;9.07;;;13.50;99.90;;;;;;5033431;28;20211;-67
2022/11/13 12:08:30;;;;;;;9.90;9.00;;;13.60;99.90;;;;;;5036605;28;20962;-68
2022/11/13 12:11:21;;;;;;;9.97;8.87;;;13.70;99.90;;;;;;5036742;28;20195;-71
2022/11/13 12:14:19;;;;;;;9.73;8.47;;;13.80;99.90;;;;;;5034814;28;20499;-69
2022/11/13 12:17:19;;;;;;;10.77;9.77;;;14.10;99.90;;;;;;5034943;28;20887;-66
2022/11/13 12:20:07;;;;;;;11.90;9.80;;;14.50;99.90;;;;;;5035982;28;20596;-65
2022/11/13 12:22:52;;;;;;;9.90;9.00;;;14.70;99.90;;;;;;5029049;28;20190;-66
2022/11/13 12:25:31;;;;;;;11.57;9.23;;;14.80;99.90;;;;;;5025555;28;20502;-66
2022/11/13 12:28:15;;;;;;;12.80;10.00;;;14.80;99.90;;;;;;5021899;28;20210;-65
2022/11/13 12:31:06;;;;;;;12.67;9.97;;;15.00;99.90;;;;;;5026813;28;20198;-66
2022/11/13 12:33:47;;;;;;;10.70;9.67;;;15.40;99.90;;;;;;5025695;28;20202;-66
2022/11/13 12:36:13;;;;;;;11.87;10.67;;;15.70;99.90;;;;;;5023406;28;20593;-66
2022/11/13 12:39:01;;;;;;;11.43;9.77;;;16.00;99.90;;;;;;5025455;28;20203;-66
2022/11/13 12:41:33;;;;;;;10.37;9.33;;;16.30;99.90;;;;;;5024098;28;20251;-66
2022/11/13 12:44:23;;;;;;;10.25;9.25;;;16.70;99.90;;;;;;5026508;28;20662;-68